Terminal Aerodrome Forecast
Issued by NWS Sterling, VA

Current Version | Previous Version | Text Only | Print | Product List | Glossary Off
Versions: 1 2 3 4 5 6 7 8 9 10 11 12 13 14 15 16 17 18 19 20 21 22 23 24 25 26

000
FTUS41 KLWX 261733
TAFDCA
TAF
KDCA 261733Z 2618/2718 15005KT P6SM SCT050
     FM261900 15005KT P6SM BKN050
     FM270000 13006KT P6SM SCT250
     FM270700 18005KT P6SM SCT025 BKN090
     FM271000 19005KT P6SM SCT015 BKN025
     FM271400 20007KT P6SM BKN040=

USA.gov is the U.S. government's official web portal to all federal, state and local government web resources and services.